Time;durP1;ratioP1;P1;durP2;ratioP2;P2;SDS_P1;SDS_P2;PMS_P1;PMS_P2;Temp;Humidity;BMP_temperature;BMP_pressure;BME280_temperature;BME280_humidity;BME280_pressure;Samples;Min_cycle;Max_cycle;Signal;HPM_P1;HPM_P2
2023/09/13 00:01:31;;;;;;;9.05;4.45;;;24.50;99.90;;;;;;7392437;19;20154;-75
2023/09/13 00:03:58;;;;;;;8.23;4.00;;;24.50;99.90;;;;;;7389830;19;20755;-76
2023/09/13 00:06:24;;;;;;;5.95;3.75;;;24.40;99.90;;;;;;7392748;19;20169;-76
2023/09/13 00:08:50;;;;;;;5.35;3.60;;;24.20;99.90;;;;;;7392520;19;20142;-76
2023/09/13 00:11:16;;;;;;;9.05;4.38;;;23.70;99.90;;;;;;7391794;19;20141;-76
2023/09/13 00:13:42;;;;;;;4.82;4.07;;;23.50;99.90;;;;;;7390231;19;20142;-76
2023/09/13 00:16:08;;;;;;;4.18;3.55;;;23.70;99.90;;;;;;7390096;19;20126;-77
2023/09/13 00:18:34;;;;;;;4.75;3.88;;;23.80;99.90;;;;;;7390032;19;20146;-77
2023/09/13 00:21:00;;;;;;;4.65;3.83;;;23.90;99.90;;;;;;7392752;19;20168;-76
2023/09/13 00:23:25;;;;;;;5.50;3.45;;;24.00;99.90;;;;;;7390629;19;20529;-77
2023/09/13 00:25:51;;;;;;;6.95;3.85;;;24.10;99.90;;;;;;7392562;19;20150;-77
2023/09/13 00:28:17;;;;;;;6.70;4.30;;;24.10;99.90;;;;;;7391213;19;20780;-75
2023/09/13 00:30:42;;;;;;;5.25;3.85;;;24.00;99.90;;;;;;7389124;19;20147;-76
2023/09/13 00:33:08;;;;;;;5.57;3.95;;;24.00;99.90;;;;;;7391459;19;20154;-76
2023/09/13 00:35:35;;;;;;;6.22;4.30;;;24.00;99.90;;;;;;7391704;19;20162;-77
2023/09/13 00:38:00;;;;;;;5.60;4.10;;;23.90;99.90;;;;;;7392397;19;20161;-77
2023/09/13 00:40:26;;;;;;;6.93;4.15;;;23.90;99.90;;;;;;7387788;19;20626;-77
2023/09/13 00:42:53;;;;;;;6.70;4.55;;;23.70;99.90;;;;;;7391949;19;20149;-78
2023/09/13 00:45:20;;;;;;;6.78;4.45;;;23.70;99.90;;;;;;7390938;19;20479;-77
2023/09/13 00:47:48;;;;;;;8.88;4.22;;;23.40;99.90;;;;;;7394236;19;20164;-77
2023/09/13 00:50:15;;;;;;;4.43;3.88;;;23.30;99.90;;;;;;7392869;19;20151;-78
2023/09/13 00:52:44;;;;;;;4.88;4.18;;;23.30;99.90;;;;;;7386760;19;20145;-79
2023/09/13 00:55:11;;;;;;;7.30;4.43;;;23.10;99.90;;;;;;7391011;19;20161;-80
2023/09/13 00:57:37;;;;;;;6.15;4.15;;;23.10;99.90;;;;;;7393810;19;20470;-79
2023/09/13 01:00:11;;;;;;;8.23;4.65;;;23.20;99.90;;;;;;7389726;19;20150;-79
2023/09/13 01:02:41;;;;;;;4.72;3.85;;;23.10;99.90;;;;;;7388908;19;20567;-79
2023/09/13 01:05:13;;;;;;;5.85;3.90;;;22.80;99.90;;;;;;7391202;19;20275;-79
2023/09/13 01:07:44;;;;;;;5.00;3.90;;;22.90;99.90;;;;;;7390778;19;20533;-78
2023/09/13 01:10:10;;;;;;;5.57;3.72;;;22.80;99.90;;;;;;7393614;19;20158;-79
2023/09/13 01:12:37;;;;;;;5.93;3.88;;;22.70;99.90;;;;;;7391034;19;20162;-79
2023/09/13 01:15:08;;;;;;;5.95;4.00;;;22.90;99.90;;;;;;7391503;19;20162;-78
2023/09/13 01:17:49;;;;;;;5.68;3.97;;;22.90;99.90;;;;;;7390561;19;20139;-79
2023/09/13 01:20:17;;;;;;;4.97;4.05;;;22.90;99.90;;;;;;7390813;19;20158;-79
2023/09/13 01:22:58;;;;;;;4.75;4.10;;;22.90;99.90;;;;;;7390745;19;20143;-79
2023/09/13 01:25:45;;;;;;;4.22;3.33;;;23.00;99.90;;;;;;7393164;19;20138;-79
2023/09/13 01:28:24;;;;;;;5.82;4.07;;;22.90;99.90;;;;;;7391103;19;20632;-79
2023/09/13 01:30:51;;;;;;;5.53;4.07;;;22.90;99.90;;;;;;7391308;19;20158;-79
2023/09/13 01:33:17;;;;;;;4.68;3.85;;;22.80;99.90;;;;;;7392583;19;20800;-80
2023/09/13 01:35:43;;;;;;;4.85;3.55;;;22.80;99.90;;;;;;7389209;19;20622;-79
2023/09/13 01:38:09;;;;;;;8.55;3.92;;;22.60;99.90;;;;;;7389771;19;20134;-78
2023/09/13 01:40:40;;;;;;;4.32;3.70;;;22.60;99.90;;;;;;7388586;19;20146;-78
2023/09/13 01:43:06;;;;;;;5.10;3.60;;;22.70;99.90;;;;;;7388953;19;20126;-79
2023/09/13 01:45:33;;;;;;;4.90;3.78;;;22.70;99.90;;;;;;7391150;19;20151;-79
2023/09/13 01:48:01;;;;;;;7.13;4.30;;;22.70;99.90;;;;;;7392081;19;20142;-79
2023/09/13 01:50:27;;;;;;;8.98;4.20;;;22.80;99.90;;;;;;7393923;19;20149;-79
2023/09/13 01:52:53;;;;;;;4.40;4.00;;;22.90;99.90;;;;;;7389323;19;20158;-79
2023/09/13 01:55:18;;;;;;;4.75;4.13;;;22.80;99.90;;;;;;7387858;19;20142;-78
2023/09/13 01:57:44;;;;;;;7.85;4.60;;;22.70;99.90;;;;;;7391039;19;20134;-78
2023/09/13 02:00:11;;;;;;;7.53;4.40;;;22.80;99.90;;;;;;7388289;19;20746;-78
2023/09/13 02:02:36;;;;;;;8.00;4.60;;;22.70;99.90;;;;;;7388323;19;20176;-78
2023/09/13 02:05:03;;;;;;;6.30;4.78;;;22.80;99.90;;;;;;7388965;19;20182;-78
2023/09/13 02:07:29;;;;;;;9.50;4.55;;;22.80;99.90;;;;;;7389515;19;20156;-78
2023/09/13 02:09:54;;;;;;;7.30;4.57;;;22.80;99.90;;;;;;7388692;19;20198;-77
2023/09/13 02:12:20;;;;;;;5.57;4.10;;;22.70;99.90;;;;;;7389983;19;20135;-77
2023/09/13 02:14:46;;;;;;;5.25;3.58;;;22.70;99.90;;;;;;7388539;19;20286;-77
2023/09/13 02:17:12;;;;;;;5.38;4.47;;;22.70;99.90;;;;;;7389186;19;20135;-77
2023/09/13 02:19:37;;;;;;;5.30;3.85;;;22.70;99.90;;;;;;7389202;19;20198;-77
2023/09/13 02:22:04;;;;;;;3.83;3.50;;;22.70;99.90;;;;;;7389939;19;20162;-76
2023/09/13 02:24:32;;;;;;;4.82;3.63;;;22.70;99.90;;;;;;7387781;19;20138;-78
2023/09/13 02:26:59;;;;;;;3.95;3.55;;;22.60;99.90;;;;;;7389241;19;20147;-77
2023/09/13 02:29:25;;;;;;;4.03;3.42;;;22.40;99.90;;;;;;7390391;19;20147;-77
2023/09/13 02:31:51;;;;;;;59.78;6.10;;;22.30;99.90;;;;;;7388340;19;20153;-77
2023/09/13 02:34:17;;;;;;;12.40;4.30;;;22.30;99.90;;;;;;7386058;19;20210;-77
2023/09/13 02:36:45;;;;;;;18.95;4.88;;;22.30;99.90;;;;;;7387097;19;20565;-78
2023/09/13 02:39:42;;;;;;;9.52;4.32;;;22.30;99.90;;;;;;7387451;19;20146;-77
2023/09/13 02:42:08;;;;;;;14.43;5.20;;;22.40;99.90;;;;;;7388622;19;20134;-77
2023/09/13 02:44:35;;;;;;;6.65;4.85;;;22.50;99.90;;;;;;7389497;19;20553;-77
2023/09/13 02:47:01;;;;;;;6.38;4.32;;;22.50;99.90;;;;;;7387605;19;20251;-78
2023/09/13 02:49:27;;;;;;;7.32;4.90;;;22.40;99.90;;;;;;7388767;19;20143;-78
2023/09/13 02:51:54;;;;;;;7.40;4.35;;;22.50;99.90;;;;;;7385801;19;20155;-77
2023/09/13 02:54:20;;;;;;;4.85;3.85;;;22.40;99.90;;;;;;7386773;19;20180;-77
2023/09/13 02:56:49;;;;;;;4.35;3.08;;;22.30;99.90;;;;;;7386603;19;20135;-77
2023/09/13 02:59:15;;;;;;;3.03;2.63;;;22.40;99.90;;;;;;7385144;19;20137;-78
2023/09/13 03:01:42;;;;;;;2.85;2.22;;;22.30;99.90;;;;;;7389950;19;20135;-77
2023/09/13 03:04:08;;;;;;;2.13;1.90;;;22.10;99.90;;;;;;7386357;19;20159;-77
2023/09/13 03:06:34;;;;;;;10.60;3.97;;;22.20;99.90;;;;;;7387579;19;20154;-77
2023/09/13 03:09:00;;;;;;;3.75;2.75;;;22.20;99.90;;;;;;7387171;19;20134;-77
2023/09/13 03:11:28;;;;;;;2.42;2.15;;;22.10;99.90;;;;;;7383907;19;20504;-78
2023/09/13 03:13:53;;;;;;;2.10;1.90;;;22.20;99.90;;;;;;7386251;19;20127;-77
2023/09/13 03:16:22;;;;;;;1.50;1.40;;;22.30;99.90;;;;;;7387165;19;20150;-77
2023/09/13 03:18:50;;;;;;;1.90;1.42;;;22.30;99.90;;;;;;7386943;19;20174;-78
2023/09/13 03:21:18;;;;;;;1.85;1.45;;;22.40;99.90;;;;;;7387795;19;20134;-77
2023/09/13 03:23:46;;;;;;;1.33;1.23;;;22.10;99.90;;;;;;7386633;19;20147;-77
2023/09/13 03:26:20;;;;;;;1.00;0.88;;;22.20;99.90;;;;;;7386446;19;20473;-78
2023/09/13 03:28:49;;;;;;;1.00;0.90;;;22.30;99.90;;;;;;7390183;19;20140;-78
2023/09/13 03:31:18;;;;;;;0.98;0.80;;;22.10;99.90;;;;;;7386125;19;20146;-77
2023/09/13 03:33:44;;;;;;;1.52;0.80;;;22.10;99.90;;;;;;7385175;19;20127;-77
2023/09/13 03:36:12;;;;;;;0.70;0.70;;;22.00;99.90;;;;;;7385514;19;20126;-77
2023/09/13 03:38:39;;;;;;;0.75;0.75;;;22.00;99.90;;;;;;7385196;19;20947;-76
2023/09/13 03:41:10;;;;;;;0.60;0.60;;;22.00;99.90;;;;;;7387463;19;20131;-77
2023/09/13 03:43:36;;;;;;;0.73;0.47;;;22.10;99.90;;;;;;7385710;19;20177;-78
2023/09/13 03:46:04;;;;;;;1.13;0.40;;;22.10;99.90;;;;;;7388568;19;20201;-77
2023/09/13 03:48:30;;;;;;;1.25;0.82;;;22.10;99.90;;;;;;7381099;19;20679;-77
2023/09/13 03:50:57;;;;;;;0.88;0.80;;;22.10;99.90;;;;;;7386054;19;20138;-77
2023/09/13 03:53:23;;;;;;;0.68;0.60;;;22.10;99.90;;;;;;7386170;19;20139;-77
2023/09/13 03:55:50;;;;;;;0.52;0.50;;;22.10;99.90;;;;;;7388573;19;20521;-78
2023/09/13 03:58:16;;;;;;;1.08;0.98;;;22.00;99.90;;;;;;7388366;19;20619;-77
2023/09/13 04:00:41;;;;;;;0.68;0.68;;;22.10;99.90;;;;;;7380967;19;20135;-77
2023/09/13 04:03:07;;;;;;;1.25;0.65;;;22.10;99.90;;;;;;7386334;19;20138;-76
2023/09/13 04:05:33;;;;;;;0.93;0.85;;;22.10;99.90;;;;;;7387022;19;20146;-77
2023/09/13 04:07:59;;;;;;;0.75;0.70;;;22.10;99.90;;;;;;7393309;19;20146;-76
2023/09/13 04:10:25;;;;;;;0.82;0.73;;;22.10;99.90;;;;;;7392395;19;20616;-77
2023/09/13 04:12:50;;;;;;;0.60;0.60;;;22.20;99.90;;;;;;7392028;19;20164;-78
2023/09/13 04:15:17;;;;;;;0.50;0.50;;;21.90;99.90;;;;;;7390836;19;20142;-78
2023/09/13 04:17:42;;;;;;;0.60;0.60;;;21.90;99.90;;;;;;7393953;19;20576;-77
2023/09/13 04:20:10;;;;;;;0.75;0.75;;;22.00;99.90;;;;;;7389446;19;20151;-76
2023/09/13 04:22:36;;;;;;;1.08;0.90;;;21.90;99.90;;;;;;7391947;19;20146;-77
2023/09/13 04:25:05;;;;;;;1.25;0.93;;;21.90;99.90;;;;;;7393152;19;20147;-77
2023/09/13 04:27:31;;;;;;;0.88;0.73;;;21.80;99.90;;;;;;7391401;19;20207;-77
2023/09/13 04:29:57;;;;;;;0.60;0.60;;;21.40;99.90;;;;;;7390340;19;21698;-76
2023/09/13 04:32:26;;;;;;;0.73;0.73;;;21.40;99.90;;;;;;7392774;19;20230;-77
2023/09/13 04:34:55;;;;;;;0.85;0.68;;;21.30;99.90;;;;;;7391130;19;20147;-77
2023/09/13 04:37:21;;;;;;;0.68;0.57;;;21.40;99.90;;;;;;7394344;19;20619;-77
2023/09/13 04:39:47;;;;;;;0.50;0.50;;;21.40;99.90;;;;;;7391038;19;20127;-78
2023/09/13 04:42:14;;;;;;;0.60;0.60;;;21.70;99.90;;;;;;7393287;19;20203;-78
2023/09/13 04:44:40;;;;;;;0.68;0.68;;;21.80;99.90;;;;;;7391267;19;20635;-77
2023/09/13 04:47:06;;;;;;;1.00;0.70;;;21.80;99.90;;;;;;7391561;19;20143;-77
2023/09/13 04:49:31;;;;;;;1.00;0.90;;;21.60;99.90;;;;;;7391243;19;20715;-77
2023/09/13 04:51:59;;;;;;;0.95;0.73;;;21.60;99.90;;;;;;7391013;19;20130;-77
2023/09/13 04:54:25;;;;;;;0.80;0.68;;;21.40;99.90;;;;;;7390777;19;20135;-77
2023/09/13 04:56:51;;;;;;;0.80;0.80;;;21.80;99.90;;;;;;7391901;19;20238;-77
2023/09/13 04:59:19;;;;;;;0.93;0.70;;;21.90;99.90;;;;;;7391094;19;20138;-76
2023/09/13 05:01:45;;;;;;;0.88;0.77;;;22.00;99.90;;;;;;7391726;19;20155;-78
2023/09/13 05:04:11;;;;;;;0.80;0.65;;;21.80;99.90;;;;;;7389204;19;20194;-78
2023/09/13 05:06:37;;;;;;;0.88;0.80;;;22.00;99.90;;;;;;7391525;19;20134;-77
2023/09/13 05:09:03;;;;;;;0.73;0.68;;;22.00;99.90;;;;;;7390952;19;20162;-77
2023/09/13 05:11:29;;;;;;;0.77;0.70;;;22.00;99.90;;;;;;7391760;19;20586;-78
2023/09/13 05:14:14;;;;;;;1.13;0.93;;;22.10;99.90;;;;;;7392248;19;20201;-78
2023/09/13 05:16:40;;;;;;;1.10;1.00;;;21.90;99.90;;;;;;7389535;19;20151;-77
2023/09/13 05:19:06;;;;;;;0.63;0.63;;;21.60;99.90;;;;;;7391666;19;20142;-77
2023/09/13 05:21:33;;;;;;;0.75;0.50;;;21.60;99.90;;;;;;7390740;19;20131;-77
2023/09/13 05:24:00;;;;;;;0.90;0.70;;;21.90;99.90;;;;;;7390823;19;20150;-78
2023/09/13 05:26:26;;;;;;;1.23;0.68;;;22.00;99.90;;;;;;7389766;19;20198;-77
2023/09/13 05:28:51;;;;;;;0.60;0.60;;;22.10;99.90;;;;;;7390309;19;20152;-77
2023/09/13 05:31:17;;;;;;;0.55;0.50;;;22.00;99.90;;;;;;7389442;19;20150;-77
2023/09/13 05:33:43;;;;;;;0.88;0.63;;;22.00;99.90;;;;;;7392605;19;20146;-78
2023/09/13 05:36:10;;;;;;;0.88;0.60;;;21.90;99.90;;;;;;7389548;19;20239;-77
2023/09/13 05:38:36;;;;;;;0.70;0.60;;;21.90;99.90;;;;;;7389812;19;20142;-77
2023/09/13 05:41:08;;;;;;;0.90;0.90;;;22.00;99.90;;;;;;7389761;19;20459;-77
2023/09/13 05:43:35;;;;;;;1.02;0.63;;;22.10;99.90;;;;;;7390778;19;20257;-77
2023/09/13 05:46:01;;;;;;;0.40;0.40;;;22.10;99.90;;;;;;7391570;19;20155;-77
2023/09/13 05:48:27;;;;;;;0.80;0.50;;;22.10;99.90;;;;;;7391459;19;20180;-77
2023/09/13 05:50:53;;;;;;;0.30;0.30;;;22.10;99.90;;;;;;7390876;19;20190;-77
2023/09/13 05:53:19;;;;;;;0.50;0.50;;;22.00;99.90;;;;;;7389444;19;20150;-75
2023/09/13 05:55:46;;;;;;;0.70;0.52;;;22.00;99.90;;;;;;7387232;19;20247;-76
2023/09/13 05:58:12;;;;;;;0.60;0.60;;;21.90;99.90;;;;;;7389974;19;20526;-75
2023/09/13 06:00:43;;;;;;;0.45;0.45;;;22.00;99.90;;;;;;7385695;19;20134;-75
2023/09/13 06:03:18;;;;;;;0.70;0.70;;;22.00;99.90;;;;;;7381192;19;20623;-76
2023/09/13 06:05:51;;;;;;;0.77;0.75;;;21.90;99.90;;;;;;7386780;19;20174;-79
2023/09/13 06:08:20;;;;;;;0.68;0.63;;;22.00;99.90;;;;;;7389507;19;20138;-76
2023/09/13 06:10:46;;;;;;;0.50;0.43;;;22.10;99.90;;;;;;7388338;19;20141;-75
2023/09/13 06:13:12;;;;;;;0.30;0.30;;;22.10;99.90;;;;;;7387345;19;20536;-77
2023/09/13 06:15:38;;;;;;;0.45;0.45;;;22.10;99.90;;;;;;7388775;19;20234;-77
2023/09/13 06:18:04;;;;;;;0.40;0.38;;;22.00;99.90;;;;;;7389025;19;20578;-77
2023/09/13 06:20:30;;;;;;;0.30;0.30;;;22.00;99.90;;;;;;7385646;19;20544;-78
2023/09/13 06:22:56;;;;;;;0.40;0.40;;;22.00;99.90;;;;;;7386751;19;20166;-77
2023/09/13 06:25:22;;;;;;;0.45;0.30;;;22.10;99.90;;;;;;7387552;19;20147;-77
2023/09/13 06:27:51;;;;;;;0.50;0.50;;;21.90;99.90;;;;;;7382493;19;20462;-75
2023/09/13 06:30:19;;;;;;;0.30;0.30;;;22.00;99.90;;;;;;7388410;19;20420;-76
2023/09/13 06:32:44;;;;;;;0.13;0.13;;;22.10;99.90;;;;;;7387279;19;20142;-73
2023/09/13 06:35:12;;;;;;;0.15;0.15;;;22.10;99.90;;;;;;7386962;19;20142;-73
2023/09/13 06:37:38;;;;;;;0.13;0.13;;;22.10;99.90;;;;;;7387879;19;20201;-73
2023/09/13 06:40:04;;;;;;;0.40;0.40;;;22.10;99.90;;;;;;7388019;19;20608;-73
2023/09/13 06:42:30;;;;;;;0.32;0.22;;;22.00;99.90;;;;;;7386463;19;20170;-72
2023/09/13 06:44:57;;;;;;;0.30;0.30;;;22.10;99.90;;;;;;7385314;19;20364;-75
2023/09/13 06:47:22;;;;;;;0.57;0.57;;;22.10;99.90;;;;;;7386041;19;20162;-75
2023/09/13 06:49:48;;;;;;;0.50;0.50;;;22.10;99.90;;;;;;7385353;19;20760;-75
2023/09/13 06:52:14;;;;;;;0.52;0.30;;;22.20;99.90;;;;;;7386419;19;20407;-75
2023/09/13 06:54:40;;;;;;;0.22;0.22;;;22.20;99.90;;;;;;7386658;19;20598;-75
2023/09/13 06:57:08;;;;;;;0.20;0.20;;;22.30;99.90;;;;;;7387038;19;20142;-75
2023/09/13 06:59:34;;;;;;;0.50;0.50;;;22.40;99.90;;;;;;7385452;19;20493;-76
2023/09/13 07:01:59;;;;;;;0.75;0.45;;;22.40;99.90;;;;;;7384509;19;20147;-74
2023/09/13 07:04:25;;;;;;;0.20;0.20;;;22.50;99.90;;;;;;7382669;19;20200;-76
2023/09/13 07:06:54;;;;;;;0.30;0.30;;;22.60;99.90;;;;;;7385712;19;20142;-75
2023/09/13 07:09:19;;;;;;;0.20;0.20;;;22.80;99.90;;;;;;7383049;19;20154;-75
2023/09/13 07:11:45;;;;;;;0.22;0.22;;;22.80;99.90;;;;;;7386407;19;20146;-75
2023/09/13 07:14:11;;;;;;;0.17;0.10;;;22.90;99.90;;;;;;7384687;19;20154;-75
2023/09/13 07:16:37;;;;;;;0.13;0.13;;;22.80;99.90;;;;;;7384222;19;20135;-75
2023/09/13 07:19:03;;;;;;;0.08;0.08;;;22.70;99.90;;;;;;7386482;19;20162;-76
2023/09/13 07:21:29;;;;;;;0.30;0.30;;;22.60;99.90;;;;;;7385515;19;20272;-76
2023/09/13 07:23:55;;;;;;;0.30;0.30;;;22.60;99.90;;;;;;7384652;19;20154;-76
2023/09/13 07:26:21;;;;;;;0.10;0.10;;;22.70;99.90;;;;;;7383132;19;20166;-75
2023/09/13 07:28:47;;;;;;;0.28;0.28;;;22.60;99.90;;;;;;7385505;19;20627;-77
2023/09/13 07:31:13;;;;;;;0.20;0.20;;;22.50;99.90;;;;;;7384365;19;20130;-78
2023/09/13 07:33:38;;;;;;;0.25;0.20;;;22.50;99.90;;;;;;7384592;19;20243;-80
2023/09/13 07:36:04;;;;;;;0.32;0.30;;;22.40;99.90;;;;;;7384291;19;20134;-75
2023/09/13 07:38:30;;;;;;;0.40;0.20;;;22.40;99.90;;;;;;7385681;19;20232;-81
2023/09/13 07:40:57;;;;;;;0.10;0.10;;;22.30;99.90;;;;;;7392610;19;20630;-79
2023/09/13 07:43:22;;;;;;;0.20;0.20;;;22.20;99.90;;;;;;7392014;19;20152;-79
2023/09/13 07:45:49;;;;;;;0.35;0.30;;;22.20;99.90;;;;;;7391567;19;20194;-79
2023/09/13 07:48:15;;;;;;;0.22;0.22;;;22.20;99.90;;;;;;7393353;19;20209;-81
2023/09/13 07:50:41;;;;;;;0.20;0.20;;;22.30;99.90;;;;;;7394931;19;20148;-79
2023/09/13 07:53:07;;;;;;;0.88;0.50;;;22.30;99.90;;;;;;7393792;19;20138;-79
2023/09/13 07:55:34;;;;;;;0.52;0.40;;;22.20;99.90;;;;;;7390842;19;20153;-79
2023/09/13 07:58:00;;;;;;;0.40;0.40;;;22.20;99.90;;;;;;7393006;19;20145;-78
2023/09/13 08:00:26;;;;;;;0.17;0.17;;;22.30;99.90;;;;;;7393687;19;20127;-78
2023/09/13 08:02:52;;;;;;;0.20;0.20;;;22.30;99.90;;;;;;7391208;19;20145;-80
2023/09/13 08:05:18;;;;;;;0.45;0.45;;;22.30;99.90;;;;;;7387464;19;20651;-79
2023/09/13 08:07:45;;;;;;;0.38;0.38;;;22.30;99.90;;;;;;7393155;19;20238;-80
2023/09/13 08:10:11;;;;;;;0.30;0.30;;;22.30;99.90;;;;;;7393332;19;20142;-76
2023/09/13 08:12:37;;;;;;;0.38;0.38;;;22.30;99.90;;;;;;7393136;19;20134;-76
2023/09/13 08:15:04;;;;;;;0.32;0.25;;;22.40;99.90;;;;;;7391481;19;20491;-81
2023/09/13 08:17:31;;;;;;;0.30;0.30;;;22.50;99.90;;;;;;7394705;19;20184;-82
2023/09/13 08:20:01;;;;;;;0.10;0.10;;;22.50;99.90;;;;;;7392893;19;20146;-81
2023/09/13 08:22:27;;;;;;;0.25;0.25;;;22.60;99.90;;;;;;7391606;19;20627;-74
2023/09/13 08:24:53;;;;;;;0.20;0.20;;;22.70;99.90;;;;;;7389342;19;20143;-75
2023/09/13 08:27:19;;;;;;;0.30;0.30;;;22.70;99.90;;;;;;7394010;19;20142;-80
2023/09/13 08:29:46;;;;;;;0.20;0.20;;;22.60;99.90;;;;;;7393436;19;20664;-79
2023/09/13 08:32:12;;;;;;;0.40;0.40;;;22.70;99.90;;;;;;7393595;19;20214;-82
2023/09/13 08:34:38;;;;;;;0.50;0.35;;;22.70;99.90;;;;;;7392520;19;20158;-80
2023/09/13 08:37:04;;;;;;;0.30;0.30;;;22.60;99.90;;;;;;7394477;19;20221;-79
2023/09/13 08:39:30;;;;;;;0.20;0.20;;;22.70;99.90;;;;;;7389708;19;20169;-80
2023/09/13 08:41:56;;;;;;;0.10;0.10;;;22.60;99.90;;;;;;7392804;19;20652;-79
2023/09/13 08:44:23;;;;;;;0.30;0.30;;;22.50;99.90;;;;;;7391039;19;20290;-80
2023/09/13 08:46:51;;;;;;;0.30;0.30;;;22.50;99.90;;;;;;7390277;19;20143;-79
2023/09/13 08:49:17;;;;;;;0.00;0.00;;;22.40;99.90;;;;;;7389592;19;20158;-78
2023/09/13 08:51:48;;;;;;;0.35;0.35;;;22.30;99.90;;;;;;7387581;19;20138;-79
2023/09/13 08:54:14;;;;;;;0.30;0.30;;;22.30;99.90;;;;;;7389901;19;20214;-80
2023/09/13 08:56:45;;;;;;;0.30;0.30;;;22.20;99.90;;;;;;7391471;19;20498;-78
2023/09/13 08:59:15;;;;;;;0.28;0.28;;;22.20;99.90;;;;;;7389611;19;20174;-80
2023/09/13 09:01:52;;;;;;;0.20;0.20;;;22.20;99.90;;;;;;7393223;19;20145;-79
2023/09/13 09:04:20;;;;;;;0.10;0.10;;;22.20;99.90;;;;;;7391407;19;20139;-79
2023/09/13 09:06:47;;;;;;;0.30;0.30;;;22.10;99.90;;;;;;7391709;19;20171;-79
2023/09/13 09:09:17;;;;;;;0.10;0.10;;;22.10;99.90;;;;;;7389790;19;20172;-79
2023/09/13 09:11:47;;;;;;;0.22;0.22;;;22.10;99.90;;;;;;7390936;19;20145;-79
2023/09/13 09:14:15;;;;;;;0.30;0.30;;;22.10;99.90;;;;;;7391665;19;20135;-79
2023/09/13 09:16:43;;;;;;;0.20;0.20;;;22.00;99.90;;;;;;7391015;19;20143;-78
2023/09/13 09:19:09;;;;;;;0.28;0.28;;;22.00;99.90;;;;;;7389973;19;20179;-79
2023/09/13 09:21:37;;;;;;;0.30;0.30;;;22.00;99.90;;;;;;7391501;19;20138;-78
2023/09/13 09:24:04;;;;;;;0.60;0.40;;;22.00;99.90;;;;;;7392808;19;20605;-78
2023/09/13 09:26:29;;;;;;;0.30;0.30;;;21.90;99.90;;;;;;7391067;19;20135;-78
2023/09/13 09:29:09;;;;;;;0.17;0.17;;;22.10;99.90;;;;;;7393136;19;20168;-78
2023/09/13 09:31:35;;;;;;;0.20;0.20;;;22.30;99.90;;;;;;7392206;19;20712;-79
2023/09/13 09:34:05;;;;;;;0.93;0.57;;;22.20;99.90;;;;;;7394559;19;20556;-77
2023/09/13 09:36:38;;;;;;;0.60;0.60;;;22.40;99.90;;;;;;7391377;19;20126;-79
2023/09/13 09:39:04;;;;;;;0.55;0.55;;;22.50;99.90;;;;;;7392266;19;20149;-81
2023/09/13 09:41:37;;;;;;;0.20;0.20;;;22.60;99.90;;;;;;7393533;19;20157;-79
2023/09/13 09:44:04;;;;;;;0.28;0.28;;;22.70;99.90;;;;;;7390426;19;20158;-79
2023/09/13 09:46:31;;;;;;;0.40;0.40;;;22.70;99.90;;;;;;7390801;19;20487;-80
2023/09/13 09:49:00;;;;;;;0.20;0.20;;;22.60;99.90;;;;;;7389890;19;20506;-79
2023/09/13 09:51:26;;;;;;;0.20;0.20;;;22.60;99.90;;;;;;7390250;19;20130;-78
2023/09/13 09:53:52;;;;;;;0.10;0.10;;;22.50;99.90;;;;;;7390826;19;20576;-79
2023/09/13 09:56:18;;;;;;;0.22;0.22;;;22.50;99.90;;;;;;7387898;19;20711;-79
2023/09/13 09:58:47;;;;;;;0.10;0.10;;;22.50;99.90;;;;;;7387176;19;20135;-80
2023/09/13 10:01:12;;;;;;;0.30;0.30;;;22.40;99.90;;;;;;7389906;19;20505;-80
2023/09/13 10:03:40;;;;;;;0.22;0.22;;;22.50;99.90;;;;;;7388702;19;20188;-81
2023/09/13 10:06:11;;;;;;;0.40;0.38;;;22.60;99.90;;;;;;7384934;19;20158;-78
2023/09/13 10:08:41;;;;;;;0.43;0.30;;;22.70;99.90;;;;;;7391190;19;20159;-80
2023/09/13 10:11:21;;;;;;;0.10;0.10;;;22.70;99.90;;;;;;7388588;19;20584;-80
2023/09/13 10:13:47;;;;;;;0.30;0.30;;;22.80;99.90;;;;;;7388890;19;20169;-80
2023/09/13 10:16:14;;;;;;;0.30;0.30;;;22.50;99.90;;;;;;7387875;19;20506;-79
2023/09/13 10:18:45;;;;;;;0.22;0.22;;;22.50;99.90;;;;;;7390249;19;20162;-79
2023/09/13 10:21:14;;;;;;;0.38;0.38;;;22.60;99.90;;;;;;7390544;19;20166;-80
2023/09/13 10:23:43;;;;;;;0.40;0.40;;;22.50;99.90;;;;;;7388596;19;20135;-80
2023/09/13 10:26:11;;;;;;;0.20;0.20;;;22.60;99.90;;;;;;7387724;19;20272;-80
2023/09/13 10:28:39;;;;;;;0.20;0.20;;;22.70;99.90;;;;;;7387077;19;20163;-79
2023/09/13 10:31:14;;;;;;;0.20;0.20;;;22.60;99.90;;;;;;7387338;19;20219;-79
2023/09/13 10:33:43;;;;;;;0.20;0.20;;;22.60;99.90;;;;;;7385551;19;20225;-79
2023/09/13 10:36:19;;;;;;;0.43;0.40;;;22.60;99.90;;;;;;7388090;19;20153;-80
2023/09/13 10:38:49;;;;;;;0.40;0.40;;;22.60;99.90;;;;;;7388595;19;20154;-80
2023/09/13 10:41:18;;;;;;;0.20;0.20;;;22.50;99.90;;;;;;7387133;19;20174;-79
2023/09/13 10:43:47;;;;;;;0.20;0.20;;;22.60;99.90;;;;;;7385459;19;20242;-78
2023/09/13 10:46:14;;;;;;;0.20;0.20;;;22.50;99.90;;;;;;7387183;19;20206;-79
2023/09/13 10:48:40;;;;;;;0.68;0.60;;;22.30;99.90;;;;;;7387629;19;20568;-79
2023/09/13 10:51:08;;;;;;;0.30;0.30;;;22.60;99.90;;;;;;7386550;19;20214;-79
2023/09/13 10:53:36;;;;;;;0.40;0.40;;;22.70;99.90;;;;;;7386564;19;20137;-79
2023/09/13 10:56:02;;;;;;;0.20;0.20;;;22.70;99.90;;;;;;7386140;19;20206;-79
2023/09/13 10:58:29;;;;;;;0.15;0.15;;;22.70;99.90;;;;;;7386709;19;20178;-79
2023/09/13 11:00:57;;;;;;;0.30;0.30;;;22.90;99.90;;;;;;7386299;19;20584;-78
2023/09/13 11:03:24;;;;;;;0.20;0.20;;;23.00;99.90;;;;;;7385716;19;20150;-80
2023/09/13 11:05:57;;;;;;;0.20;0.20;;;23.00;99.90;;;;;;7386132;19;20161;-78
2023/09/13 11:08:31;;;;;;;0.50;0.32;;;22.80;99.90;;;;;;7386408;19;20202;-80
2023/09/13 11:11:08;;;;;;;0.25;0.25;;;22.80;99.90;;;;;;7385386;19;20133;-80
2023/09/13 11:13:34;;;;;;;0.20;0.20;;;22.70;99.90;;;;;;7386880;19;20142;-80
2023/09/13 11:16:07;;;;;;;0.40;0.32;;;22.90;99.90;;;;;;7394667;19;20205;-80
2023/09/13 11:18:43;;;;;;;0.35;0.22;;;23.10;99.90;;;;;;7395583;19;20119;-77
2023/09/13 11:21:46;;;;;;;0.40;0.40;;;23.30;99.90;;;;;;7394806;19;20158;-79
2023/09/13 11:24:12;;;;;;;0.38;0.30;;;23.30;99.90;;;;;;7391358;19;20156;-82
2023/09/13 11:26:48;;;;;;;0.75;0.40;;;23.40;99.90;;;;;;7393540;19;20150;-80
2023/09/13 11:29:24;;;;;;;0.30;0.30;;;23.40;99.90;;;;;;7393835;19;20130;-81
2023/09/13 11:32:03;;;;;;;0.40;0.30;;;22.70;99.90;;;;;;7391435;19;20127;-83
2023/09/13 11:34:32;;;;;;;0.25;0.22;;;22.90;99.90;;;;;;7392055;19;20130;-82
2023/09/13 11:37:00;;;;;;;0.25;0.25;;;23.00;99.90;;;;;;7391143;19;20194;-83
2023/09/13 11:39:27;;;;;;;0.20;0.20;;;23.10;99.90;;;;;;7393266;19;20139;-82
2023/09/13 11:41:55;;;;;;;0.20;0.20;;;23.30;99.90;;;;;;7392084;19;20153;-83
2023/09/13 11:44:25;;;;;;;0.22;0.20;;;23.40;99.90;;;;;;7392444;19;20148;-82
2023/09/13 11:46:53;;;;;;;0.20;0.20;;;23.60;99.90;;;;;;7395820;19;20142;-83
2023/09/13 11:49:24;;;;;;;0.10;0.10;;;23.50;99.90;;;;;;7396766;19;20146;-87
2023/09/13 11:51:54;;;;;;;0.40;0.40;;;23.60;99.90;;;;;;7395734;19;21070;-83
2023/09/13 11:54:22;;;;;;;0.43;0.43;;;23.60;99.90;;;;;;7398394;19;20240;-86
2023/09/13 11:57:01;;;;;;;0.20;0.20;;;23.60;99.90;;;;;;7397618;19;20139;-85
2023/09/13 11:59:30;;;;;;;0.47;0.47;;;23.40;99.90;;;;;;7394370;19;20201;-84
2023/09/13 12:01:57;;;;;;;0.20;0.20;;;23.60;99.90;;;;;;7392899;19;20541;-83
2023/09/13 12:04:26;;;;;;;0.40;0.40;;;23.70;99.90;;;;;;7393320;19;20631;-83
2023/09/13 12:06:57;;;;;;;0.40;0.35;;;23.70;99.90;;;;;;7393115;19;20607;-81
2023/09/13 12:09:23;;;;;;;0.35;0.35;;;23.60;99.90;;;;;;7394966;19;20134;-82
2023/09/13 12:11:52;;;;;;;0.50;0.40;;;23.70;99.90;;;;;;7393389;19;20615;-80
2023/09/13 12:14:27;;;;;;;0.30;0.30;;;23.80;99.90;;;;;;7393078;19;20481;-79
2023/09/13 12:16:53;;;;;;;0.50;0.32;;;23.80;99.90;;;;;;7395363;19;20226;-82
2023/09/13 12:19:19;;;;;;;0.20;0.20;;;23.90;99.90;;;;;;7393340;19;20881;-82
2023/09/13 12:21:46;;;;;;;0.43;0.40;;;24.00;99.90;;;;;;7397771;19;20164;-81
2023/09/13 12:24:18;;;;;;;0.30;0.30;;;24.00;99.90;;;;;;7392661;19;20142;-78
2023/09/13 12:26:44;;;;;;;0.20;0.20;;;24.00;99.90;;;;;;7389783;19;20507;-79
2023/09/13 12:29:10;;;;;;;0.15;0.15;;;24.00;99.90;;;;;;7390817;19;20146;-82
2023/09/13 12:31:36;;;;;;;0.10;0.10;;;24.00;99.90;;;;;;7392070;19;20518;-85
2023/09/13 12:34:03;;;;;;;0.60;0.60;;;24.10;99.90;;;;;;7394034;19;20139;-83
2023/09/13 12:36:29;;;;;;;0.50;0.50;;;24.00;99.90;;;;;;7392822;19;20147;-83
2023/09/13 12:38:58;;;;;;;0.65;0.52;;;24.10;99.90;;;;;;7391716;19;20143;-83
2023/09/13 12:41:33;;;;;;;0.30;0.30;;;24.20;99.90;;;;;;7392683;19;20153;-82
2023/09/13 12:44:00;;;;;;;0.40;0.40;;;23.80;99.90;;;;;;7391273;19;20142;-83
2023/09/13 12:46:27;;;;;;;0.30;0.30;;;24.00;99.90;;;;;;7389915;19;20154;-82
2023/09/13 12:48:58;;;;;;;0.50;0.20;;;24.20;99.90;;;;;;7392174;19;20206;-84